Overview Statistics Trail Chart Weather Telemetry Raw packets
 

This is the latest recevied weather packets stored in our database for station/object KD7CIH. If no packets are shown the sender has not sent any weather packets the latest 10 day(s).

<< 88 89 90 91 92 93 94 >>
Time Temp. Humidity Pressure Rain* Wind** Luminosity Snow
1788050815 16.67° C 68% 1015.4 hPa 0 mm - - -
1788050510 16.67° C 67% 1015.4 hPa 0 mm - - -
1788050202 17.22° C 66% 1015.2 hPa 0 mm - - -
1788049897 17.78° C 64% 1015.2 hPa 0 mm - - -
1788049594 17.78° C 65% 1015.2 hPa 0 mm - - -
1788049295 18.33° C 65% 1015.2 hPa 0 mm - - -
1788049122 18.33° C 62% 1015.2 hPa 0 mm - - -
1788048822 18.33° C 59% 1014.9 hPa 0 mm - - -
1788048394 18.33° C 60% 1014.9 hPa 0 mm - - -
1788048096 17.78° C 61% 1014.9 hPa 0 mm - - -
1788047795 17.78° C 62% 1014.7 hPa 0 mm - - -
1788047623 17.78° C 61% 1014.8 hPa 0 mm - - -
1788047198 17.22° C 60% 1014.6 hPa 0 mm - - -
1788046896 17.78° C 59% 1014.6 hPa 0 mm - - -
1788046594 17.78° C 60% 1014.6 hPa 0 mm - - -
1788046294 17.78° C 60% 1014.7 hPa 0 mm - - -
1788046124 17.78° C 59% 1014.6 hPa 0 mm - - -
1788045694 17.78° C 61% 1014.5 hPa 0 mm - - -
1788045394 17.78° C 61% 1014.5 hPa 0 mm - - -
1788045094 17.22° C 60% 1014.5 hPa 0 mm - - -
1788044796 17.22° C 62% 1014.6 hPa 0 mm - - -
1788044494 17.22° C 64% 1014.7 hPa 0 mm - - -
1788044320 16.67° C 65% 1014.9 hPa 0 mm - - -
1788043896 16.67° C 66% 1014.9 hPa 0 mm - - -
1788043593 16.67° C 69% 1015.2 hPa 0 mm - - -

* Rain latest hour (hover to see other rain measurements)
** Current wind speed in m/s (hover to see current wind gust speed)